Terminal Aerodrome Forecast
Issued by NWS

Home | Current Version | Previous Version | Text Only | Print | Product List | Glossary On
Versions: 1 2 3 4 5 6 7 8 9 10 11 12 13 14 15 16 17 18
000
FTUS46 KSGX 051753 AAA
TAFONT
TAF AMD
KONT 051753Z 0518/0624 VRB04KT 6SM HZ SCT020
     FM052000 26011KT P6SM FEW080
     FM060500 25006KT P6SM SKC
     FM061100 VRB04KT 5SM BR OVC013
     FM061830 VRB04KT P6SM SCT015
     FM062000 26011KT P6SM SKC=

USA.gov is the U.S. government's official web portal to all federal, state and local government web resources and services.